sensor_id;sensor_type;location;lat;lon;timestamp;P1;durP1;ratioP1;P2;durP2;ratioP2
73872;SDS011;62206;47.568;9.364;2024-02-28T00:02:00;26.95;;;19.48;;
73872;SDS011;62206;47.568;9.364;2024-02-28T00:04:27;31.33;;;21.42;;
73872;SDS011;62206;47.568;9.364;2024-02-28T00:06:55;27.67;;;19.48;;
73872;SDS011;62206;47.568;9.364;2024-02-28T00:09:24;29.48;;;20.88;;
73872;SDS011;62206;47.568;9.364;2024-02-28T00:11:50;33.35;;;21.10;;
73872;SDS011;62206;47.568;9.364;2024-02-28T00:14:17;30.58;;;20.50;;
73872;SDS011;62206;47.568;9.364;2024-02-28T00:16:45;29.95;;;20.42;;
73872;SDS011;62206;47.568;9.364;2024-02-28T00:19:13;30.60;;;20.42;;
73872;SDS011;62206;47.568;9.364;2024-02-28T00:21:40;30.05;;;20.25;;
73872;SDS011;62206;47.568;9.364;2024-02-28T00:24:09;28.88;;;20.15;;
73872;SDS011;62206;47.568;9.364;2024-02-28T00:26:37;29.92;;;20.70;;
73872;SDS011;62206;47.568;9.364;2024-02-28T00:29:06;29.83;;;20.55;;
73872;SDS011;62206;47.568;9.364;2024-02-28T00:31:34;32.83;;;21.15;;
73872;SDS011;62206;47.568;9.364;2024-02-28T00:34:00;31.77;;;20.67;;
73872;SDS011;62206;47.568;9.364;2024-02-28T00:36:27;31.27;;;20.83;;
73872;SDS011;62206;47.568;9.364;2024-02-28T00:38:55;31.90;;;20.67;;
73872;SDS011;62206;47.568;9.364;2024-02-28T00:41:23;34.17;;;21.90;;
73872;SDS011;62206;47.568;9.364;2024-02-28T00:43:50;30.58;;;20.35;;
73872;SDS011;62206;47.568;9.364;2024-02-28T00:46:17;30.27;;;21.25;;
73872;SDS011;62206;47.568;9.364;2024-02-28T00:48:44;31.15;;;20.45;;
73872;SDS011;62206;47.568;9.364;2024-02-28T00:51:11;33.47;;;22.75;;
73872;SDS011;62206;47.568;9.364;2024-02-28T00:53:38;31.13;;;20.98;;
73872;SDS011;62206;47.568;9.364;2024-02-28T00:56:05;30.30;;;20.13;;
73872;SDS011;62206;47.568;9.364;2024-02-28T00:58:33;31.05;;;21.83;;
73872;SDS011;62206;47.568;9.364;2024-02-28T01:01:01;32.72;;;21.77;;
73872;SDS011;62206;47.568;9.364;2024-02-28T01:03:27;29.75;;;20.80;;
73872;SDS011;62206;47.568;9.364;2024-02-28T01:05:54;30.05;;;20.08;;
73872;SDS011;62206;47.568;9.364;2024-02-28T01:08:22;28.08;;;19.45;;
73872;SDS011;62206;47.568;9.364;2024-02-28T01:10:48;29.08;;;19.73;;
73872;SDS011;62206;47.568;9.364;2024-02-28T01:13:15;32.72;;;21.60;;
73872;SDS011;62206;47.568;9.364;2024-02-28T01:15:44;32.67;;;22.15;;
73872;SDS011;62206;47.568;9.364;2024-02-28T01:18:11;30.75;;;20.30;;
73872;SDS011;62206;47.568;9.364;2024-02-28T01:20:38;29.77;;;20.42;;
73872;SDS011;62206;47.568;9.364;2024-02-28T01:23:05;32.58;;;21.00;;
73872;SDS011;62206;47.568;9.364;2024-02-28T01:25:32;31.35;;;21.00;;
73872;SDS011;62206;47.568;9.364;2024-02-28T01:27:59;31.73;;;19.48;;
73872;SDS011;62206;47.568;9.364;2024-02-28T01:30:27;28.63;;;20.08;;
73872;SDS011;62206;47.568;9.364;2024-02-28T01:32:55;32.67;;;21.90;;
73872;SDS011;62206;47.568;9.364;2024-02-28T01:35:21;29.45;;;20.33;;
73872;SDS011;62206;47.568;9.364;2024-02-28T01:37:49;31.15;;;20.15;;
73872;SDS011;62206;47.568;9.364;2024-02-28T01:40:16;30.83;;;20.95;;
73872;SDS011;62206;47.568;9.364;2024-02-28T01:42:43;31.45;;;21.30;;
73872;SDS011;62206;47.568;9.364;2024-02-28T01:45:13;30.13;;;20.58;;
73872;SDS011;62206;47.568;9.364;2024-02-28T01:47:40;30.65;;;19.85;;
73872;SDS011;62206;47.568;9.364;2024-02-28T01:50:09;30.67;;;21.52;;
73872;SDS011;62206;47.568;9.364;2024-02-28T01:52:37;33.15;;;21.27;;
73872;SDS011;62206;47.568;9.364;2024-02-28T01:55:04;29.55;;;20.30;;
73872;SDS011;62206;47.568;9.364;2024-02-28T01:57:32;30.90;;;21.17;;
73872;SDS011;62206;47.568;9.364;2024-02-28T01:59:59;31.02;;;20.70;;
73872;SDS011;62206;47.568;9.364;2024-02-28T02:02:26;33.92;;;21.92;;
73872;SDS011;62206;47.568;9.364;2024-02-28T02:04:53;33.25;;;20.73;;
73872;SDS011;62206;47.568;9.364;2024-02-28T02:07:23;32.15;;;21.48;;
73872;SDS011;62206;47.568;9.364;2024-02-28T02:09:51;30.00;;;20.48;;
73872;SDS011;62206;47.568;9.364;2024-02-28T02:12:18;33.88;;;21.95;;
73872;SDS011;62206;47.568;9.364;2024-02-28T02:14:47;30.45;;;20.70;;
73872;SDS011;62206;47.568;9.364;2024-02-28T02:17:14;31.63;;;21.27;;
73872;SDS011;62206;47.568;9.364;2024-02-28T02:19:41;31.63;;;20.50;;
73872;SDS011;62206;47.568;9.364;2024-02-28T02:22:08;31.27;;;20.58;;
73872;SDS011;62206;47.568;9.364;2024-02-28T02:24:38;31.25;;;21.67;;
73872;SDS011;62206;47.568;9.364;2024-02-28T02:27:05;30.90;;;20.88;;
73872;SDS011;62206;47.568;9.364;2024-02-28T02:29:32;31.55;;;20.70;;
73872;SDS011;62206;47.568;9.364;2024-02-28T02:31:59;33.30;;;22.08;;
73872;SDS011;62206;47.568;9.364;2024-02-28T02:34:26;32.05;;;21.50;;
73872;SDS011;62206;47.568;9.364;2024-02-28T02:36:53;32.63;;;21.30;;
73872;SDS011;62206;47.568;9.364;2024-02-28T02:39:20;31.50;;;20.35;;
73872;SDS011;62206;47.568;9.364;2024-02-28T02:41:48;32.03;;;21.58;;
73872;SDS011;62206;47.568;9.364;2024-02-28T02:44:16;33.65;;;22.02;;
73872;SDS011;62206;47.568;9.364;2024-02-28T02:46:43;31.63;;;20.55;;
73872;SDS011;62206;47.568;9.364;2024-02-28T02:49:10;29.45;;;20.05;;
73872;SDS011;62206;47.568;9.364;2024-02-28T02:51:37;29.20;;;20.85;;
73872;SDS011;62206;47.568;9.364;2024-02-28T02:54:04;34.15;;;22.50;;
73872;SDS011;62206;47.568;9.364;2024-02-28T02:56:31;32.13;;;20.98;;
73872;SDS011;62206;47.568;9.364;2024-02-28T02:59:00;32.15;;;21.58;;
73872;SDS011;62206;47.568;9.364;2024-02-28T03:01:26;32.58;;;22.23;;
73872;SDS011;62206;47.568;9.364;2024-02-28T03:04:00;33.10;;;21.35;;
73872;SDS011;62206;47.568;9.364;2024-02-28T03:06:26;31.33;;;21.30;;
73872;SDS011;62206;47.568;9.364;2024-02-28T03:08:53;32.58;;;21.05;;
73872;SDS011;62206;47.568;9.364;2024-02-28T03:11:21;32.60;;;21.25;;
73872;SDS011;62206;47.568;9.364;2024-02-28T03:13:47;32.33;;;22.15;;
73872;SDS011;62206;47.568;9.364;2024-02-28T03:16:16;30.60;;;20.88;;
73872;SDS011;62206;47.568;9.364;2024-02-28T03:18:43;32.60;;;21.65;;
73872;SDS011;62206;47.568;9.364;2024-02-28T03:21:10;30.08;;;21.05;;
73872;SDS011;62206;47.568;9.364;2024-02-28T03:23:37;30.67;;;21.23;;
73872;SDS011;62206;47.568;9.364;2024-02-28T03:26:04;33.15;;;22.58;;
73872;SDS011;62206;47.568;9.364;2024-02-28T03:28:31;31.05;;;21.35;;
73872;SDS011;62206;47.568;9.364;2024-02-28T03:30:58;34.20;;;21.95;;
73872;SDS011;62206;47.568;9.364;2024-02-28T03:33:27;32.25;;;22.02;;
73872;SDS011;62206;47.568;9.364;2024-02-28T03:35:56;32.05;;;22.00;;
73872;SDS011;62206;47.568;9.364;2024-02-28T03:38:23;31.33;;;20.77;;
73872;SDS011;62206;47.568;9.364;2024-02-28T03:40:51;28.70;;;20.25;;
73872;SDS011;62206;47.568;9.364;2024-02-28T03:43:17;30.42;;;20.92;;
73872;SDS011;62206;47.568;9.364;2024-02-28T03:45:44;32.15;;;21.60;;
73872;SDS011;62206;47.568;9.364;2024-02-28T03:48:12;30.92;;;21.10;;
73872;SDS011;62206;47.568;9.364;2024-02-28T03:50:40;31.83;;;21.50;;
73872;SDS011;62206;47.568;9.364;2024-02-28T03:53:07;32.95;;;20.98;;
73872;SDS011;62206;47.568;9.364;2024-02-28T03:55:34;31.52;;;21.38;;
73872;SDS011;62206;47.568;9.364;2024-02-28T03:58:03;33.05;;;21.38;;
73872;SDS011;62206;47.568;9.364;2024-02-28T04:00:32;33.15;;;21.73;;
73872;SDS011;62206;47.568;9.364;2024-02-28T04:02:59;31.80;;;21.92;;
73872;SDS011;62206;47.568;9.364;2024-02-28T04:05:26;33.92;;;21.38;;
73872;SDS011;62206;47.568;9.364;2024-02-28T04:07:54;31.27;;;20.77;;
73872;SDS011;62206;47.568;9.364;2024-02-28T04:10:22;32.53;;;22.20;;
73872;SDS011;62206;47.568;9.364;2024-02-28T04:12:49;33.90;;;22.27;;
73872;SDS011;62206;47.568;9.364;2024-02-28T04:15:16;33.47;;;21.55;;
73872;SDS011;62206;47.568;9.364;2024-02-28T04:17:43;34.58;;;22.60;;
73872;SDS011;62206;47.568;9.364;2024-02-28T04:20:10;34.63;;;22.58;;
73872;SDS011;62206;47.568;9.364;2024-02-28T04:22:38;31.60;;;22.63;;
73872;SDS011;62206;47.568;9.364;2024-02-28T04:25:07;32.88;;;21.73;;
73872;SDS011;62206;47.568;9.364;2024-02-28T04:27:35;35.35;;;22.90;;
73872;SDS011;62206;47.568;9.364;2024-02-28T04:30:02;32.80;;;21.45;;
73872;SDS011;62206;47.568;9.364;2024-02-28T04:32:30;35.33;;;22.65;;
73872;SDS011;62206;47.568;9.364;2024-02-28T04:34:57;31.70;;;21.88;;
73872;SDS011;62206;47.568;9.364;2024-02-28T04:37:23;35.58;;;23.42;;
73872;SDS011;62206;47.568;9.364;2024-02-28T04:39:51;33.45;;;22.63;;
73872;SDS011;62206;47.568;9.364;2024-02-28T04:42:19;36.50;;;23.83;;
73872;SDS011;62206;47.568;9.364;2024-02-28T04:44:46;32.90;;;21.63;;
73872;SDS011;62206;47.568;9.364;2024-02-28T04:47:13;33.42;;;22.15;;
73872;SDS011;62206;47.568;9.364;2024-02-28T04:49:40;32.03;;;23.05;;
73872;SDS011;62206;47.568;9.364;2024-02-28T04:52:07;36.47;;;23.33;;
73872;SDS011;62206;47.568;9.364;2024-02-28T04:54:34;34.30;;;23.25;;
73872;SDS011;62206;47.568;9.364;2024-02-28T04:57:02;38.30;;;23.88;;
73872;SDS011;62206;47.568;9.364;2024-02-28T04:59:30;32.42;;;22.23;;
73872;SDS011;62206;47.568;9.364;2024-02-28T05:01:58;35.90;;;22.80;;
73872;SDS011;62206;47.568;9.364;2024-02-28T05:04:25;35.88;;;23.48;;
73872;SDS011;62206;47.568;9.364;2024-02-28T05:06:52;33.40;;;21.83;;
73872;SDS011;62206;47.568;9.364;2024-02-28T05:09:19;31.55;;;22.90;;
73872;SDS011;62206;47.568;9.364;2024-02-28T05:11:46;33.38;;;22.85;;
73872;SDS011;62206;47.568;9.364;2024-02-28T05:14:13;34.05;;;22.92;;
73872;SDS011;62206;47.568;9.364;2024-02-28T05:16:42;36.25;;;23.50;;
73872;SDS011;62206;47.568;9.364;2024-02-28T05:19:09;33.85;;;22.92;;
73872;SDS011;62206;47.568;9.364;2024-02-28T05:21:39;32.83;;;22.80;;
73872;SDS011;62206;47.568;9.364;2024-02-28T05:24:07;34.95;;;22.75;;
73872;SDS011;62206;47.568;9.364;2024-02-28T05:26:34;34.47;;;24.02;;
73872;SDS011;62206;47.568;9.364;2024-02-28T05:29:01;34.17;;;22.15;;
73872;SDS011;62206;47.568;9.364;2024-02-28T05:31:29;36.05;;;23.45;;
73872;SDS011;62206;47.568;9.364;2024-02-28T05:33:58;34.40;;;22.25;;
73872;SDS011;62206;47.568;9.364;2024-02-28T05:36:26;36.08;;;23.50;;
73872;SDS011;62206;47.568;9.364;2024-02-28T05:38:54;34.92;;;23.13;;
73872;SDS011;62206;47.568;9.364;2024-02-28T05:41:22;36.42;;;24.73;;
73872;SDS011;62206;47.568;9.364;2024-02-28T05:43:49;31.40;;;21.67;;
73872;SDS011;62206;47.568;9.364;2024-02-28T05:46:16;34.78;;;23.00;;
73872;SDS011;62206;47.568;9.364;2024-02-28T05:48:44;34.47;;;23.98;;
73872;SDS011;62206;47.568;9.364;2024-02-28T05:51:12;35.13;;;23.30;;
73872;SDS011;62206;47.568;9.364;2024-02-28T05:53:40;36.30;;;24.73;;
73872;SDS011;62206;47.568;9.364;2024-02-28T05:56:08;33.22;;;22.35;;
73872;SDS011;62206;47.568;9.364;2024-02-28T05:58:40;35.00;;;22.10;;
73872;SDS011;62206;47.568;9.364;2024-02-28T06:01:08;34.38;;;22.75;;
73872;SDS011;62206;47.568;9.364;2024-02-28T06:03:35;34.47;;;21.65;;
73872;SDS011;62206;47.568;9.364;2024-02-28T06:06:03;33.03;;;22.45;;
73872;SDS011;62206;47.568;9.364;2024-02-28T06:08:33;34.55;;;22.42;;
73872;SDS011;62206;47.568;9.364;2024-02-28T06:11:00;32.25;;;21.75;;
73872;SDS011;62206;47.568;9.364;2024-02-28T06:13:27;34.45;;;21.75;;
73872;SDS011;62206;47.568;9.364;2024-02-28T06:15:54;33.88;;;21.80;;
73872;SDS011;62206;47.568;9.364;2024-02-28T06:18:21;34.95;;;23.77;;
73872;SDS011;62206;47.568;9.364;2024-02-28T06:20:52;31.80;;;20.88;;
73872;SDS011;62206;47.568;9.364;2024-02-28T06:23:20;35.28;;;22.48;;
73872;SDS011;62206;47.568;9.364;2024-02-28T06:25:48;35.20;;;23.25;;
73872;SDS011;62206;47.568;9.364;2024-02-28T06:28:16;33.03;;;22.02;;
73872;SDS011;62206;47.568;9.364;2024-02-28T06:30:43;36.38;;;22.17;;
73872;SDS011;62206;47.568;9.364;2024-02-28T06:33:11;33.53;;;22.45;;
73872;SDS011;62206;47.568;9.364;2024-02-28T06:35:39;33.88;;;21.98;;
73872;SDS011;62206;47.568;9.364;2024-02-28T06:38:06;33.50;;;22.77;;
73872;SDS011;62206;47.568;9.364;2024-02-28T06:40:33;35.20;;;23.40;;
73872;SDS011;62206;47.568;9.364;2024-02-28T06:43:02;37.97;;;23.23;;
73872;SDS011;62206;47.568;9.364;2024-02-28T06:45:30;35.80;;;23.42;;
73872;SDS011;62206;47.568;9.364;2024-02-28T06:47:57;38.22;;;23.40;;
73872;SDS011;62206;47.568;9.364;2024-02-28T06:50:24;38.70;;;24.67;;
73872;SDS011;62206;47.568;9.364;2024-02-28T06:52:53;34.78;;;23.80;;
73872;SDS011;62206;47.568;9.364;2024-02-28T06:55:20;33.83;;;22.23;;
73872;SDS011;62206;47.568;9.364;2024-02-28T06:57:47;36.53;;;22.42;;
73872;SDS011;62206;47.568;9.364;2024-02-28T07:00:16;35.55;;;24.00;;
73872;SDS011;62206;47.568;9.364;2024-02-28T07:02:44;35.55;;;23.17;;
73872;SDS011;62206;47.568;9.364;2024-02-28T07:05:12;35.90;;;23.02;;
73872;SDS011;62206;47.568;9.364;2024-02-28T07:07:39;34.25;;;22.63;;
73872;SDS011;62206;47.568;9.364;2024-02-28T07:10:06;35.58;;;22.42;;
73872;SDS011;62206;47.568;9.364;2024-02-28T07:12:34;35.13;;;23.20;;
73872;SDS011;62206;47.568;9.364;2024-02-28T07:15:00;34.13;;;22.25;;
73872;SDS011;62206;47.568;9.364;2024-02-28T07:17:29;34.28;;;22.15;;
73872;SDS011;62206;47.568;9.364;2024-02-28T07:19:56;34.28;;;23.23;;
73872;SDS011;62206;47.568;9.364;2024-02-28T07:22:23;36.53;;;22.05;;
73872;SDS011;62206;47.568;9.364;2024-02-28T07:24:50;34.72;;;22.05;;
73872;SDS011;62206;47.568;9.364;2024-02-28T07:27:18;35.58;;;22.67;;
73872;SDS011;62206;47.568;9.364;2024-02-28T07:29:44;34.55;;;22.17;;
73872;SDS011;62206;47.568;9.364;2024-02-28T07:32:11;34.33;;;22.80;;
73872;SDS011;62206;47.568;9.364;2024-02-28T07:34:40;31.48;;;21.85;;
73872;SDS011;62206;47.568;9.364;2024-02-28T07:37:07;36.60;;;24.05;;
73872;SDS011;62206;47.568;9.364;2024-02-28T07:39:34;36.05;;;22.67;;
73872;SDS011;62206;47.568;9.364;2024-02-28T07:42:01;34.25;;;22.15;;
73872;SDS011;62206;47.568;9.364;2024-02-28T07:44:28;37.28;;;23.88;;
73872;SDS011;62206;47.568;9.364;2024-02-28T07:46:56;35.53;;;22.60;;
73872;SDS011;62206;47.568;9.364;2024-02-28T07:49:24;37.72;;;24.08;;
73872;SDS011;62206;47.568;9.364;2024-02-28T07:51:52;39.70;;;24.15;;
73872;SDS011;62206;47.568;9.364;2024-02-28T07:54:20;37.28;;;23.92;;
73872;SDS011;62206;47.568;9.364;2024-02-28T07:56:48;37.00;;;24.33;;
73872;SDS011;62206;47.568;9.364;2024-02-28T07:59:15;37.00;;;23.13;;
73872;SDS011;62206;47.568;9.364;2024-02-28T08:01:41;34.53;;;23.30;;
73872;SDS011;62206;47.568;9.364;2024-02-28T08:04:09;35.65;;;22.80;;
73872;SDS011;62206;47.568;9.364;2024-02-28T08:06:35;38.10;;;23.45;;
73872;SDS011;62206;47.568;9.364;2024-02-28T08:09:04;39.20;;;24.27;;
73872;SDS011;62206;47.568;9.364;2024-02-28T08:11:31;37.75;;;23.67;;
73872;SDS011;62206;47.568;9.364;2024-02-28T08:13:58;35.75;;;22.92;;
73872;SDS011;62206;47.568;9.364;2024-02-28T08:16:25;35.92;;;22.83;;
73872;SDS011;62206;47.568;9.364;2024-02-28T08:18:52;39.60;;;23.63;;
73872;SDS011;62206;47.568;9.364;2024-02-28T08:21:19;37.65;;;23.35;;
73872;SDS011;62206;47.568;9.364;2024-02-28T08:23:46;36.92;;;23.02;;
73872;SDS011;62206;47.568;9.364;2024-02-28T08:26:15;36.75;;;22.70;;
73872;SDS011;62206;47.568;9.364;2024-02-28T08:28:42;38.75;;;24.70;;
73872;SDS011;62206;47.568;9.364;2024-02-28T08:31:08;38.38;;;23.48;;
73872;SDS011;62206;47.568;9.364;2024-02-28T08:33:36;37.60;;;23.23;;
73872;SDS011;62206;47.568;9.364;2024-02-28T08:36:03;38.10;;;24.50;;
73872;SDS011;62206;47.568;9.364;2024-02-28T08:38:30;35.92;;;23.90;;
73872;SDS011;62206;47.568;9.364;2024-02-28T08:40:58;37.15;;;23.70;;
73872;SDS011;62206;47.568;9.364;2024-02-28T08:43:26;39.35;;;24.55;;
73872;SDS011;62206;47.568;9.364;2024-02-28T08:45:53;38.20;;;24.77;;
73872;SDS011;62206;47.568;9.364;2024-02-28T08:48:21;36.25;;;23.50;;
73872;SDS011;62206;47.568;9.364;2024-02-28T08:50:49;37.65;;;23.67;;
73872;SDS011;62206;47.568;9.364;2024-02-28T08:53:15;35.63;;;24.42;;
73872;SDS011;62206;47.568;9.364;2024-02-28T08:55:43;37.53;;;24.17;;
73872;SDS011;62206;47.568;9.364;2024-02-28T08:58:10;36.50;;;23.90;;
73872;SDS011;62206;47.568;9.364;2024-02-28T09:00:38;38.13;;;23.65;;
73872;SDS011;62206;47.568;9.364;2024-02-28T09:03:05;36.13;;;23.40;;
73872;SDS011;62206;47.568;9.364;2024-02-28T09:05:32;37.80;;;23.30;;
73872;SDS011;62206;47.568;9.364;2024-02-28T09:07:59;35.72;;;22.23;;
73872;SDS011;62206;47.568;9.364;2024-02-28T09:10:28;33.70;;;22.45;;
73872;SDS011;62206;47.568;9.364;2024-02-28T09:12:56;37.22;;;22.98;;
73872;SDS011;62206;47.568;9.364;2024-02-28T09:15:23;37.38;;;22.60;;
73872;SDS011;62206;47.568;9.364;2024-02-28T09:17:52;37.50;;;23.48;;
73872;SDS011;62206;47.568;9.364;2024-02-28T09:20:19;37.38;;;24.63;;
73872;SDS011;62206;47.568;9.364;2024-02-28T09:22:46;36.00;;;23.13;;
73872;SDS011;62206;47.568;9.364;2024-02-28T09:25:14;35.70;;;22.17;;
73872;SDS011;62206;47.568;9.364;2024-02-28T09:27:41;38.30;;;23.13;;
73872;SDS011;62206;47.568;9.364;2024-02-28T09:30:08;35.10;;;23.48;;
73872;SDS011;62206;47.568;9.364;2024-02-28T09:32:36;35.05;;;22.52;;
73872;SDS011;62206;47.568;9.364;2024-02-28T09:35:04;35.72;;;22.52;;
73872;SDS011;62206;47.568;9.364;2024-02-28T09:37:32;37.17;;;23.48;;
73872;SDS011;62206;47.568;9.364;2024-02-28T09:39:59;37.28;;;24.17;;
73872;SDS011;62206;47.568;9.364;2024-02-28T09:42:28;37.35;;;24.33;;
73872;SDS011;62206;47.568;9.364;2024-02-28T09:44:55;40.45;;;24.52;;
73872;SDS011;62206;47.568;9.364;2024-02-28T09:47:24;38.25;;;24.17;;
73872;SDS011;62206;47.568;9.364;2024-02-28T09:49:51;39.65;;;24.45;;
73872;SDS011;62206;47.568;9.364;2024-02-28T09:52:19;38.78;;;24.90;;
73872;SDS011;62206;47.568;9.364;2024-02-28T09:54:47;42.58;;;25.38;;
73872;SDS011;62206;47.568;9.364;2024-02-28T09:57:14;42.10;;;25.75;;
73872;SDS011;62206;47.568;9.364;2024-02-28T09:59:42;41.40;;;24.48;;
73872;SDS011;62206;47.568;9.364;2024-02-28T10:02:09;38.10;;;24.05;;
73872;SDS011;62206;47.568;9.364;2024-02-28T10:04:36;41.85;;;24.50;;
73872;SDS011;62206;47.568;9.364;2024-02-28T10:07:10;44.70;;;25.40;;
73872;SDS011;62206;47.568;9.364;2024-02-28T10:09:40;41.75;;;26.33;;
73872;SDS011;62206;47.568;9.364;2024-02-28T10:12:07;42.25;;;26.33;;
73872;SDS011;62206;47.568;9.364;2024-02-28T10:14:34;39.55;;;24.83;;
73872;SDS011;62206;47.568;9.364;2024-02-28T10:17:01;42.25;;;26.90;;
73872;SDS011;62206;47.568;9.364;2024-02-28T10:19:29;43.30;;;25.58;;
73872;SDS011;62206;47.568;9.364;2024-02-28T10:21:56;41.20;;;25.20;;
73872;SDS011;62206;47.568;9.364;2024-02-28T10:24:26;40.88;;;25.08;;
73872;SDS011;62206;47.568;9.364;2024-02-28T10:26:54;41.55;;;26.15;;
73872;SDS011;62206;47.568;9.364;2024-02-28T10:29:22;46.13;;;26.05;;
73872;SDS011;62206;47.568;9.364;2024-02-28T10:31:50;40.50;;;26.00;;
73872;SDS011;62206;47.568;9.364;2024-02-28T10:34:17;39.10;;;25.83;;
73872;SDS011;62206;47.568;9.364;2024-02-28T10:36:44;41.13;;;26.58;;
73872;SDS011;62206;47.568;9.364;2024-02-28T10:39:12;40.47;;;24.65;;
73872;SDS011;62206;47.568;9.364;2024-02-28T10:41:40;40.72;;;25.08;;
73872;SDS011;62206;47.568;9.364;2024-02-28T10:44:09;41.83;;;25.80;;
73872;SDS011;62206;47.568;9.364;2024-02-28T10:46:37;41.50;;;26.08;;
73872;SDS011;62206;47.568;9.364;2024-02-28T10:49:04;44.85;;;27.38;;
73872;SDS011;62206;47.568;9.364;2024-02-28T10:51:33;41.50;;;26.98;;
73872;SDS011;62206;47.568;9.364;2024-02-28T10:54:05;41.33;;;26.48;;
73872;SDS011;62206;47.568;9.364;2024-02-28T10:56:36;42.92;;;24.92;;
73872;SDS011;62206;47.568;9.364;2024-02-28T10:59:05;42.17;;;24.80;;
73872;SDS011;62206;47.568;9.364;2024-02-28T11:01:34;46.88;;;27.67;;
73872;SDS011;62206;47.568;9.364;2024-02-28T11:04:01;44.22;;;26.00;;
73872;SDS011;62206;47.568;9.364;2024-02-28T11:06:30;45.00;;;26.35;;
73872;SDS011;62206;47.568;9.364;2024-02-28T11:08:58;44.47;;;27.00;;
73872;SDS011;62206;47.568;9.364;2024-02-28T11:11:29;42.50;;;25.77;;
73872;SDS011;62206;47.568;9.364;2024-02-28T11:13:57;46.97;;;28.25;;
73872;SDS011;62206;47.568;9.364;2024-02-28T11:16:26;42.53;;;25.15;;
73872;SDS011;62206;47.568;9.364;2024-02-28T11:18:55;46.50;;;27.60;;
73872;SDS011;62206;47.568;9.364;2024-02-28T11:21:23;44.38;;;25.77;;
73872;SDS011;62206;47.568;9.364;2024-02-28T11:23:51;38.58;;;24.95;;
73872;SDS011;62206;47.568;9.364;2024-02-28T11:26:18;37.83;;;23.73;;
73872;SDS011;62206;47.568;9.364;2024-02-28T11:28:47;36.88;;;23.60;;
73872;SDS011;62206;47.568;9.364;2024-02-28T11:31:14;34.53;;;22.90;;
73872;SDS011;62206;47.568;9.364;2024-02-28T11:33:41;32.72;;;22.85;;
73872;SDS011;62206;47.568;9.364;2024-02-28T11:36:10;35.00;;;22.25;;
73872;SDS011;62206;47.568;9.364;2024-02-28T11:38:38;33.00;;;22.35;;
73872;SDS011;62206;47.568;9.364;2024-02-28T11:41:08;33.58;;;22.67;;
73872;SDS011;62206;47.568;9.364;2024-02-28T11:43:35;34.17;;;22.65;;
73872;SDS011;62206;47.568;9.364;2024-02-28T11:46:07;37.95;;;23.88;;
73872;SDS011;62206;47.568;9.364;2024-02-28T11:48:35;37.35;;;21.70;;
73872;SDS011;62206;47.568;9.364;2024-02-28T11:51:02;36.22;;;22.60;;
73872;SDS011;62206;47.568;9.364;2024-02-28T11:53:30;32.45;;;20.83;;
73872;SDS011;62206;47.568;9.364;2024-02-28T11:55:57;34.58;;;21.73;;
73872;SDS011;62206;47.568;9.364;2024-02-28T11:58:24;36.97;;;21.73;;
73872;SDS011;62206;47.568;9.364;2024-02-28T12:00:51;36.75;;;22.67;;
73872;SDS011;62206;47.568;9.364;2024-02-28T12:03:20;36.13;;;22.55;;
73872;SDS011;62206;47.568;9.364;2024-02-28T12:05:48;36.20;;;22.17;;
73872;SDS011;62206;47.568;9.364;2024-02-28T12:08:15;34.10;;;22.08;;
73872;SDS011;62206;47.568;9.364;2024-02-28T12:10:45;37.88;;;22.88;;
73872;SDS011;62206;47.568;9.364;2024-02-28T12:13:15;36.15;;;22.38;;
73872;SDS011;62206;47.568;9.364;2024-02-28T12:15:43;38.03;;;22.30;;
73872;SDS011;62206;47.568;9.364;2024-02-28T12:18:10;34.75;;;21.95;;
73872;SDS011;62206;47.568;9.364;2024-02-28T12:20:37;30.88;;;21.85;;
73872;SDS011;62206;47.568;9.364;2024-02-28T12:23:04;33.50;;;21.98;;
73872;SDS011;62206;47.568;9.364;2024-02-28T12:25:34;32.72;;;21.92;;
73872;SDS011;62206;47.568;9.364;2024-02-28T12:28:03;36.08;;;22.05;;
73872;SDS011;62206;47.568;9.364;2024-02-28T12:30:38;32.42;;;21.10;;
73872;SDS011;62206;47.568;9.364;2024-02-28T12:33:07;31.50;;;21.42;;
73872;SDS011;62206;47.568;9.364;2024-02-28T12:35:33;34.85;;;22.90;;
73872;SDS011;62206;47.568;9.364;2024-02-28T12:38:01;33.97;;;21.85;;
73872;SDS011;62206;47.568;9.364;2024-02-28T12:40:28;33.35;;;21.23;;
73872;SDS011;62206;47.568;9.364;2024-02-28T12:42:55;33.60;;;21.70;;
73872;SDS011;62206;47.568;9.364;2024-02-28T12:45:23;34.05;;;22.98;;
73872;SDS011;62206;47.568;9.364;2024-02-28T12:47:50;35.38;;;21.30;;
73872;SDS011;62206;47.568;9.364;2024-02-28T12:50:19;34.08;;;21.50;;
73872;SDS011;62206;47.568;9.364;2024-02-28T12:52:47;31.13;;;21.95;;
73872;SDS011;62206;47.568;9.364;2024-02-28T12:55:19;32.95;;;20.88;;
73872;SDS011;62206;47.568;9.364;2024-02-28T12:57:46;33.55;;;21.30;;
73872;SDS011;62206;47.568;9.364;2024-02-28T13:00:14;36.17;;;22.38;;
73872;SDS011;62206;47.568;9.364;2024-02-28T13:02:43;32.42;;;21.02;;
73872;SDS011;62206;47.568;9.364;2024-02-28T13:05:10;33.83;;;21.98;;
73872;SDS011;62206;47.568;9.364;2024-02-28T13:07:38;32.05;;;21.92;;
73872;SDS011;62206;47.568;9.364;2024-02-28T13:10:06;33.05;;;21.42;;
73872;SDS011;62206;47.568;9.364;2024-02-28T13:12:34;35.65;;;22.67;;
73872;SDS011;62206;47.568;9.364;2024-02-28T13:15:01;37.40;;;23.42;;
73872;SDS011;62206;47.568;9.364;2024-02-28T13:17:28;36.53;;;22.08;;
73872;SDS011;62206;47.568;9.364;2024-02-28T13:19:57;36.33;;;23.55;;
73872;SDS011;62206;47.568;9.364;2024-02-28T13:22:24;38.28;;;24.60;;
73872;SDS011;62206;47.568;9.364;2024-02-28T13:24:52;39.05;;;24.08;;
73872;SDS011;62206;47.568;9.364;2024-02-28T13:27:19;37.60;;;23.08;;
73872;SDS011;62206;47.568;9.364;2024-02-28T13:29:46;42.35;;;25.40;;
73872;SDS011;62206;47.568;9.364;2024-02-28T13:32:13;40.47;;;25.08;;
73872;SDS011;62206;47.568;9.364;2024-02-28T13:34:40;44.28;;;26.05;;
73872;SDS011;62206;47.568;9.364;2024-02-28T13:37:08;36.95;;;22.67;;
73872;SDS011;62206;47.568;9.364;2024-02-28T13:39:36;38.15;;;23.33;;
73872;SDS011;62206;47.568;9.364;2024-02-28T13:42:03;37.47;;;24.42;;
73872;SDS011;62206;47.568;9.364;2024-02-28T13:44:31;40.13;;;23.58;;
73872;SDS011;62206;47.568;9.364;2024-02-28T13:47:00;37.63;;;23.65;;
73872;SDS011;62206;47.568;9.364;2024-02-28T13:49:27;38.58;;;22.33;;
73872;SDS011;62206;47.568;9.364;2024-02-28T13:51:54;36.67;;;22.15;;
73872;SDS011;62206;47.568;9.364;2024-02-28T13:54:23;38.45;;;23.77;;
73872;SDS011;62206;47.568;9.364;2024-02-28T13:56:50;40.83;;;24.40;;
73872;SDS011;62206;47.568;9.364;2024-02-28T13:59:17;36.30;;;22.60;;
73872;SDS011;62206;47.568;9.364;2024-02-28T14:01:44;38.25;;;22.85;;
73872;SDS011;62206;47.568;9.364;2024-02-28T14:04:11;36.75;;;23.30;;
73872;SDS011;62206;47.568;9.364;2024-02-28T14:06:38;37.17;;;24.35;;
73872;SDS011;62206;47.568;9.364;2024-02-28T14:09:05;35.42;;;23.52;;
73872;SDS011;62206;47.568;9.364;2024-02-28T14:11:34;37.90;;;23.67;;
73872;SDS011;62206;47.568;9.364;2024-02-28T14:14:01;33.70;;;21.92;;
73872;SDS011;62206;47.568;9.364;2024-02-28T14:16:29;36.28;;;23.63;;
73872;SDS011;62206;47.568;9.364;2024-02-28T14:18:57;36.53;;;22.95;;
73872;SDS011;62206;47.568;9.364;2024-02-28T14:21:24;35.55;;;22.33;;
73872;SDS011;62206;47.568;9.364;2024-02-28T14:23:51;38.25;;;24.05;;